sensor_id;sensor_type;location;lat;lon;timestamp;pressure;altitude;pressure_sealevel;temperature;humidity
75089;BME280;63673;49.928;8.150;2023-07-29T00:00:39;985.2;;;16.91;100
75089;BME280;63673;49.928;8.150;2023-07-29T00:01:41;985.16;;;16.9;100
75089;BME280;63673;49.928;8.150;2023-07-29T00:02:43;985.13;;;16.9;100
75089;BME280;63673;49.928;8.150;2023-07-29T00:03:44;985.15;;;16.89;100
75089;BME280;63673;49.928;8.150;2023-07-29T00:04:46;985.11;;;16.9;100
75089;BME280;63673;49.928;8.150;2023-07-29T00:05:48;985.16;;;16.9;100
75089;BME280;63673;49.928;8.150;2023-07-29T00:06:49;985.08;;;16.91;100
75089;BME280;63673;49.928;8.150;2023-07-29T00:07:51;985.04;;;16.92;100
75089;BME280;63673;49.928;8.150;2023-07-29T00:08:53;985.05;;;16.93;100
75089;BME280;63673;49.928;8.150;2023-07-29T00:09:55;985.09;;;16.94;100
75089;BME280;63673;49.928;8.150;2023-07-29T00:10:56;985.07;;;16.95;100
75089;BME280;63673;49.928;8.150;2023-07-29T00:11:58;985.09;;;16.96;100
75089;BME280;63673;49.928;8.150;2023-07-29T00:13:00;985.08;;;16.96;100
75089;BME280;63673;49.928;8.150;2023-07-29T00:14:02;985.07;;;16.96;100
75089;BME280;63673;49.928;8.150;2023-07-29T00:15:03;985.04;;;16.97;100
75089;BME280;63673;49.928;8.150;2023-07-29T00:16:05;984.98;;;16.97;100
75089;BME280;63673;49.928;8.150;2023-07-29T00:17:07;984.98;;;16.98;100
75089;BME280;63673;49.928;8.150;2023-07-29T00:18:08;984.94;;;16.98;100
75089;BME280;63673;49.928;8.150;2023-07-29T00:19:10;984.97;;;16.99;100
75089;BME280;63673;49.928;8.150;2023-07-29T00:20:12;984.97;;;17.01;100
75089;BME280;63673;49.928;8.150;2023-07-29T00:21:14;985;;;17.02;100
75089;BME280;63673;49.928;8.150;2023-07-29T00:22:15;984.95;;;17.02;100
75089;BME280;63673;49.928;8.150;2023-07-29T00:23:17;984.97;;;17.03;100
75089;BME280;63673;49.928;8.150;2023-07-29T00:24:19;984.94;;;17.03;100
75089;BME280;63673;49.928;8.150;2023-07-29T00:25:21;984.98;;;17.03;100
75089;BME280;63673;49.928;8.150;2023-07-29T00:26:22;984.97;;;17.04;100
75089;BME280;63673;49.928;8.150;2023-07-29T00:27:24;984.98;;;17.04;100
75089;BME280;63673;49.928;8.150;2023-07-29T00:28:26;984.96;;;17.04;100
75089;BME280;63673;49.928;8.150;2023-07-29T00:29:27;984.91;;;17.04;100
75089;BME280;63673;49.928;8.150;2023-07-29T00:30:29;984.91;;;17.04;100
75089;BME280;63673;49.928;8.150;2023-07-29T00:31:31;984.88;;;17.04;100
75089;BME280;63673;49.928;8.150;2023-07-29T00:32:33;984.9;;;17.03;100
75089;BME280;63673;49.928;8.150;2023-07-29T00:33:34;984.88;;;17.03;100
75089;BME280;63673;49.928;8.150;2023-07-29T00:34:36;984.91;;;17.03;100
75089;BME280;63673;49.928;8.150;2023-07-29T00:35:38;984.89;;;17.02;100
75089;BME280;63673;49.928;8.150;2023-07-29T00:36:40;984.91;;;17.01;100
75089;BME280;63673;49.928;8.150;2023-07-29T00:37:41;984.93;;;17.01;100
75089;BME280;63673;49.928;8.150;2023-07-29T00:38:43;984.92;;;17.01;100
75089;BME280;63673;49.928;8.150;2023-07-29T00:39:45;984.9;;;17;100
75089;BME280;63673;49.928;8.150;2023-07-29T00:40:47;984.88;;;16.99;100
75089;BME280;63673;49.928;8.150;2023-07-29T00:41:48;984.83;;;16.99;100
75089;BME280;63673;49.928;8.150;2023-07-29T00:42:50;984.86;;;16.97;100
75089;BME280;63673;49.928;8.150;2023-07-29T00:43:52;984.83;;;16.98;100
75089;BME280;63673;49.928;8.150;2023-07-29T00:44:53;984.8;;;16.97;100
75089;BME280;63673;49.928;8.150;2023-07-29T00:45:55;984.76;;;16.97;100
75089;BME280;63673;49.928;8.150;2023-07-29T00:46:57;984.78;;;16.97;100
75089;BME280;63673;49.928;8.150;2023-07-29T00:47:59;984.77;;;16.95;100
75089;BME280;63673;49.928;8.150;2023-07-29T00:49:00;984.71;;;16.95;100
75089;BME280;63673;49.928;8.150;2023-07-29T00:50:02;984.69;;;16.95;100
75089;BME280;63673;49.928;8.150;2023-07-29T00:51:04;984.67;;;16.95;100
75089;BME280;63673;49.928;8.150;2023-07-29T00:52:06;984.67;;;16.95;100
75089;BME280;63673;49.928;8.150;2023-07-29T00:53:07;984.64;;;16.95;100
75089;BME280;63673;49.928;8.150;2023-07-29T00:54:09;984.66;;;16.96;100
75089;BME280;63673;49.928;8.150;2023-07-29T00:55:11;984.66;;;16.96;100
75089;BME280;63673;49.928;8.150;2023-07-29T00:56:12;984.64;;;16.96;100
75089;BME280;63673;49.928;8.150;2023-07-29T00:57:14;984.65;;;16.97;100
75089;BME280;63673;49.928;8.150;2023-07-29T00:58:16;984.59;;;16.98;100
75089;BME280;63673;49.928;8.150;2023-07-29T00:59:18;984.61;;;16.97;100
75089;BME280;63673;49.928;8.150;2023-07-29T01:00:20;984.53;;;16.98;100
75089;BME280;63673;49.928;8.150;2023-07-29T01:01:21;984.54;;;16.98;100
75089;BME280;63673;49.928;8.150;2023-07-29T01:02:23;984.51;;;16.99;100
75089;BME280;63673;49.928;8.150;2023-07-29T01:03:25;984.46;;;16.99;100
75089;BME280;63673;49.928;8.150;2023-07-29T01:04:26;984.52;;;16.99;100
75089;BME280;63673;49.928;8.150;2023-07-29T01:05:31;984.48;;;17;100
75089;BME280;63673;49.928;8.150;2023-07-29T01:06:33;984.45;;;17;100
75089;BME280;63673;49.928;8.150;2023-07-29T01:07:33;984.45;;;17.01;100
75089;BME280;63673;49.928;8.150;2023-07-29T01:08:36;984.47;;;17.02;100
75089;BME280;63673;49.928;8.150;2023-07-29T01:09:36;984.46;;;17.03;100
75089;BME280;63673;49.928;8.150;2023-07-29T01:10:39;984.44;;;17.03;100
75089;BME280;63673;49.928;8.150;2023-07-29T01:11:41;984.48;;;17.04;100
75089;BME280;63673;49.928;8.150;2023-07-29T01:12:42;984.49;;;17.04;100
75089;BME280;63673;49.928;8.150;2023-07-29T01:13:44;984.53;;;17.04;100
75089;BME280;63673;49.928;8.150;2023-07-29T01:14:46;984.57;;;17.05;100
75089;BME280;63673;49.928;8.150;2023-07-29T01:15:47;984.58;;;17.06;100
75089;BME280;63673;49.928;8.150;2023-07-29T01:16:51;984.56;;;17.06;100
75089;BME280;63673;49.928;8.150;2023-07-29T01:17:49;984.59;;;17.06;100
75089;BME280;63673;49.928;8.150;2023-07-29T01:18:51;984.59;;;17.06;100
75089;BME280;63673;49.928;8.150;2023-07-29T01:19:55;984.65;;;17.07;100
75089;BME280;63673;49.928;8.150;2023-07-29T01:20:55;984.67;;;17.08;100
75089;BME280;63673;49.928;8.150;2023-07-29T01:21:56;984.68;;;17.08;100
75089;BME280;63673;49.928;8.150;2023-07-29T01:22:58;984.65;;;17.08;100
75089;BME280;63673;49.928;8.150;2023-07-29T01:23:59;984.63;;;17.08;100
75089;BME280;63673;49.928;8.150;2023-07-29T01:25:01;984.62;;;17.08;100
75089;BME280;63673;49.928;8.150;2023-07-29T01:26:03;984.56;;;17.09;100
75089;BME280;63673;49.928;8.150;2023-07-29T01:27:05;984.59;;;17.08;100
75089;BME280;63673;49.928;8.150;2023-07-29T01:28:06;984.58;;;17.09;100
75089;BME280;63673;49.928;8.150;2023-07-29T01:29:08;984.54;;;17.09;100
75089;BME280;63673;49.928;8.150;2023-07-29T01:30:10;984.56;;;17.09;100
75089;BME280;63673;49.928;8.150;2023-07-29T01:31:12;984.52;;;17.09;100
75089;BME280;63673;49.928;8.150;2023-07-29T01:32:14;984.52;;;17.09;100
75089;BME280;63673;49.928;8.150;2023-07-29T01:33:16;984.55;;;17.1;100
75089;BME280;63673;49.928;8.150;2023-07-29T01:34:22;984.48;;;17.1;100
75089;BME280;63673;49.928;8.150;2023-07-29T01:35:19;984.49;;;17.1;100
75089;BME280;63673;49.928;8.150;2023-07-29T01:36:21;984.48;;;17.11;100
75089;BME280;63673;49.928;8.150;2023-07-29T01:37:22;984.5;;;17.1;100
75089;BME280;63673;49.928;8.150;2023-07-29T01:38:24;984.49;;;17.1;100
75089;BME280;63673;49.928;8.150;2023-07-29T01:39:25;984.48;;;17.1;100
75089;BME280;63673;49.928;8.150;2023-07-29T01:40:27;984.47;;;17.1;100
75089;BME280;63673;49.928;8.150;2023-07-29T01:41:29;984.49;;;17.11;100
75089;BME280;63673;49.928;8.150;2023-07-29T01:42:30;984.49;;;17.11;100
75089;BME280;63673;49.928;8.150;2023-07-29T01:43:32;984.5;;;17.11;100
75089;BME280;63673;49.928;8.150;2023-07-29T01:44:34;984.48;;;17.12;100
75089;BME280;63673;49.928;8.150;2023-07-29T01:45:36;984.49;;;17.12;100
75089;BME280;63673;49.928;8.150;2023-07-29T01:46:37;984.48;;;17.13;100
75089;BME280;63673;49.928;8.150;2023-07-29T01:47:39;984.51;;;17.12;100
75089;BME280;63673;49.928;8.150;2023-07-29T01:48:41;984.48;;;17.13;100
75089;BME280;63673;49.928;8.150;2023-07-29T01:49:43;984.49;;;17.13;100
75089;BME280;63673;49.928;8.150;2023-07-29T01:50:44;984.49;;;17.13;100
75089;BME280;63673;49.928;8.150;2023-07-29T01:51:46;984.48;;;17.13;100
75089;BME280;63673;49.928;8.150;2023-07-29T01:52:48;984.47;;;17.14;100
75089;BME280;63673;49.928;8.150;2023-07-29T01:53:50;984.52;;;17.15;100
75089;BME280;63673;49.928;8.150;2023-07-29T01:54:51;984.48;;;17.15;100
75089;BME280;63673;49.928;8.150;2023-07-29T01:55:53;984.43;;;17.15;100
75089;BME280;63673;49.928;8.150;2023-07-29T01:56:55;984.41;;;17.16;100
75089;BME280;63673;49.928;8.150;2023-07-29T01:57:57;984.45;;;17.16;100
75089;BME280;63673;49.928;8.150;2023-07-29T01:58:58;984.46;;;17.16;100
75089;BME280;63673;49.928;8.150;2023-07-29T02:00:00;984.45;;;17.17;100
75089;BME280;63673;49.928;8.150;2023-07-29T02:01:02;984.46;;;17.18;100
75089;BME280;63673;49.928;8.150;2023-07-29T02:02:03;984.48;;;17.18;100
75089;BME280;63673;49.928;8.150;2023-07-29T02:04:11;984.45;;;17.19;100
75089;BME280;63673;49.928;8.150;2023-07-29T02:05:17;984.49;;;17.2;100
75089;BME280;63673;49.928;8.150;2023-07-29T02:12:07;984.59;;;17.22;100
75089;BME280;63673;49.928;8.150;2023-07-29T02:13:09;984.53;;;17.21;100
75089;BME280;63673;49.928;8.150;2023-07-29T02:14:11;984.47;;;17.22;100
75089;BME280;63673;49.928;8.150;2023-07-29T02:15:12;984.53;;;17.21;100
75089;BME280;63673;49.928;8.150;2023-07-29T02:16:14;984.46;;;17.22;100
75089;BME280;63673;49.928;8.150;2023-07-29T02:17:49;984.44;;;17.21;100
75089;BME280;63673;49.928;8.150;2023-07-29T02:18:49;984.51;;;17.2;100
75089;BME280;63673;49.928;8.150;2023-07-29T02:19:51;984.35;;;17.2;100
75089;BME280;63673;49.928;8.150;2023-07-29T02:21:07;984.34;;;17.2;100
75089;BME280;63673;49.928;8.150;2023-07-29T02:22:35;984.37;;;17.18;100
75089;BME280;63673;49.928;8.150;2023-07-29T02:23:41;984.33;;;17.18;100
75089;BME280;63673;49.928;8.150;2023-07-29T02:24:44;984.19;;;17.18;100
75089;BME280;63673;49.928;8.150;2023-07-29T02:25:46;984.26;;;17.17;100
75089;BME280;63673;49.928;8.150;2023-07-29T02:26:47;984.21;;;17.17;100
75089;BME280;63673;49.928;8.150;2023-07-29T02:27:49;984.2;;;17.17;100
75089;BME280;63673;49.928;8.150;2023-07-29T02:28:51;984.19;;;17.17;100
75089;BME280;63673;49.928;8.150;2023-07-29T02:29:53;984.14;;;17.16;100
75089;BME280;63673;49.928;8.150;2023-07-29T02:31:08;984.08;;;17.16;100
75089;BME280;63673;49.928;8.150;2023-07-29T02:31:56;984.11;;;17.15;100
75089;BME280;63673;49.928;8.150;2023-07-29T02:32:58;984.12;;;17.15;100
75089;BME280;63673;49.928;8.150;2023-07-29T02:34:00;984.11;;;17.15;100
75089;BME280;63673;49.928;8.150;2023-07-29T02:35:01;984.07;;;17.15;100
75089;BME280;63673;49.928;8.150;2023-07-29T02:36:03;984.04;;;17.14;100
75089;BME280;63673;49.928;8.150;2023-07-29T02:37:05;984.04;;;17.14;100
75089;BME280;63673;49.928;8.150;2023-07-29T02:38:07;984.03;;;17.13;100
75089;BME280;63673;49.928;8.150;2023-07-29T02:39:09;984.03;;;17.13;100
75089;BME280;63673;49.928;8.150;2023-07-29T02:40:10;983.99;;;17.12;100
75089;BME280;63673;49.928;8.150;2023-07-29T02:41:12;984.02;;;17.11;100
75089;BME280;63673;49.928;8.150;2023-07-29T02:42:13;984.03;;;17.1;100
75089;BME280;63673;49.928;8.150;2023-07-29T02:43:15;984.01;;;17.09;100
75089;BME280;63673;49.928;8.150;2023-07-29T02:44:17;983.99;;;17.08;100
75089;BME280;63673;49.928;8.150;2023-07-29T02:45:19;983.98;;;17.06;100
75089;BME280;63673;49.928;8.150;2023-07-29T02:46:20;983.95;;;17.04;100
75089;BME280;63673;49.928;8.150;2023-07-29T02:47:30;983.87;;;17.02;100
75089;BME280;63673;49.928;8.150;2023-07-29T02:48:32;983.86;;;17.01;100
75089;BME280;63673;49.928;8.150;2023-07-29T02:49:35;983.89;;;16.98;100
75089;BME280;63673;49.928;8.150;2023-07-29T02:50:36;983.92;;;16.97;100
75089;BME280;63673;49.928;8.150;2023-07-29T02:51:37;983.9;;;16.95;100
75089;BME280;63673;49.928;8.150;2023-07-29T02:52:39;983.94;;;16.94;100
75089;BME280;63673;49.928;8.150;2023-07-29T02:53:41;983.92;;;16.93;100
75089;BME280;63673;49.928;8.150;2023-07-29T02:54:42;983.9;;;16.91;100
75089;BME280;63673;49.928;8.150;2023-07-29T02:55:44;983.93;;;16.9;100
75089;BME280;63673;49.928;8.150;2023-07-29T02:56:46;983.94;;;16.88;100
75089;BME280;63673;49.928;8.150;2023-07-29T02:57:48;983.96;;;16.86;100
75089;BME280;63673;49.928;8.150;2023-07-29T02:58:49;983.9;;;16.84;100
75089;BME280;63673;49.928;8.150;2023-07-29T02:59:51;983.94;;;16.83;100
75089;BME280;63673;49.928;8.150;2023-07-29T03:00:53;983.96;;;16.8;100
75089;BME280;63673;49.928;8.150;2023-07-29T03:01:55;983.91;;;16.78;100
75089;BME280;63673;49.928;8.150;2023-07-29T03:02:56;983.97;;;16.76;100
75089;BME280;63673;49.928;8.150;2023-07-29T03:03:58;983.98;;;16.74;100
75089;BME280;63673;49.928;8.150;2023-07-29T03:05:00;984;;;16.72;100
75089;BME280;63673;49.928;8.150;2023-07-29T03:06:02;983.99;;;16.7;100
75089;BME280;63673;49.928;8.150;2023-07-29T03:07:04;983.99;;;16.68;100
75089;BME280;63673;49.928;8.150;2023-07-29T03:08:07;983.9;;;16.66;100
75089;BME280;63673;49.928;8.150;2023-07-29T03:09:12;983.94;;;16.65;100
75089;BME280;63673;49.928;8.150;2023-07-29T03:10:14;983.95;;;16.63;100
75089;BME280;63673;49.928;8.150;2023-07-29T03:11:15;983.95;;;16.62;100
75089;BME280;63673;49.928;8.150;2023-07-29T03:12:17;983.97;;;16.61;100
75089;BME280;63673;49.928;8.150;2023-07-29T03:13:19;983.96;;;16.61;100
75089;BME280;63673;49.928;8.150;2023-07-29T03:14:21;983.93;;;16.6;100
75089;BME280;63673;49.928;8.150;2023-07-29T03:15:23;983.94;;;16.6;100
75089;BME280;63673;49.928;8.150;2023-07-29T03:16:24;983.91;;;16.59;100
75089;BME280;63673;49.928;8.150;2023-07-29T03:17:26;983.91;;;16.59;100
75089;BME280;63673;49.928;8.150;2023-07-29T03:18:27;983.89;;;16.59;100
75089;BME280;63673;49.928;8.150;2023-07-29T03:19:29;983.92;;;16.59;100
75089;BME280;63673;49.928;8.150;2023-07-29T03:20:31;983.93;;;16.58;100
75089;BME280;63673;49.928;8.150;2023-07-29T03:21:33;983.94;;;16.58;100
75089;BME280;63673;49.928;8.150;2023-07-29T03:22:34;983.93;;;16.58;100
75089;BME280;63673;49.928;8.150;2023-07-29T03:23:38;983.97;;;16.57;100
75089;BME280;63673;49.928;8.150;2023-07-29T03:24:38;983.93;;;16.56;100
75089;BME280;63673;49.928;8.150;2023-07-29T03:25:40;983.91;;;16.55;100
75089;BME280;63673;49.928;8.150;2023-07-29T03:26:41;983.93;;;16.55;100
75089;BME280;63673;49.928;8.150;2023-07-29T03:27:43;983.92;;;16.54;100
75089;BME280;63673;49.928;8.150;2023-07-29T03:28:45;983.97;;;16.53;100
75089;BME280;63673;49.928;8.150;2023-07-29T03:29:47;983.96;;;16.52;100
75089;BME280;63673;49.928;8.150;2023-07-29T03:30:48;983.87;;;16.51;100
75089;BME280;63673;49.928;8.150;2023-07-29T03:31:50;983.86;;;16.5;100
75089;BME280;63673;49.928;8.150;2023-07-29T03:32:52;983.82;;;16.49;100
75089;BME280;63673;49.928;8.150;2023-07-29T03:33:53;983.86;;;16.47;100
75089;BME280;63673;49.928;8.150;2023-07-29T03:34:55;983.83;;;16.46;100
75089;BME280;63673;49.928;8.150;2023-07-29T03:35:57;983.82;;;16.45;100
75089;BME280;63673;49.928;8.150;2023-07-29T03:36:59;983.77;;;16.44;100
75089;BME280;63673;49.928;8.150;2023-07-29T03:38:00;983.76;;;16.43;100
75089;BME280;63673;49.928;8.150;2023-07-29T03:39:02;983.75;;;16.41;100
75089;BME280;63673;49.928;8.150;2023-07-29T03:40:04;983.72;;;16.4;100
75089;BME280;63673;49.928;8.150;2023-07-29T03:41:06;983.73;;;16.38;100
75089;BME280;63673;49.928;8.150;2023-07-29T03:42:07;983.69;;;16.37;100
75089;BME280;63673;49.928;8.150;2023-07-29T03:43:09;983.69;;;16.35;100
75089;BME280;63673;49.928;8.150;2023-07-29T03:44:11;983.65;;;16.32;100
75089;BME280;63673;49.928;8.150;2023-07-29T03:45:13;983.61;;;16.31;100
75089;BME280;63673;49.928;8.150;2023-07-29T03:46:15;983.61;;;16.29;100
75089;BME280;63673;49.928;8.150;2023-07-29T03:47:16;983.62;;;16.27;100
75089;BME280;63673;49.928;8.150;2023-07-29T03:48:18;983.65;;;16.26;100
75089;BME280;63673;49.928;8.150;2023-07-29T03:49:20;983.69;;;16.24;100
75089;BME280;63673;49.928;8.150;2023-07-29T03:50:23;983.61;;;16.22;100
75089;BME280;63673;49.928;8.150;2023-07-29T03:51:25;983.68;;;16.2;100
75089;BME280;63673;49.928;8.150;2023-07-29T03:52:25;983.61;;;16.18;100
75089;BME280;63673;49.928;8.150;2023-07-29T03:53:26;983.61;;;16.16;100
75089;BME280;63673;49.928;8.150;2023-07-29T03:54:28;983.64;;;16.15;100
75089;BME280;63673;49.928;8.150;2023-07-29T03:55:30;983.68;;;16.13;100
75089;BME280;63673;49.928;8.150;2023-07-29T03:56:32;983.67;;;16.12;100
75089;BME280;63673;49.928;8.150;2023-07-29T03:57:33;983.69;;;16.1;100
75089;BME280;63673;49.928;8.150;2023-07-29T03:58:35;983.74;;;16.09;100
75089;BME280;63673;49.928;8.150;2023-07-29T04:00:56;983.75;;;16.07;100
75089;BME280;63673;49.928;8.150;2023-07-29T04:09:19;983.75;;;16.08;100
75089;BME280;63673;49.928;8.150;2023-07-29T04:10:20;983.69;;;16.08;100
75089;BME280;63673;49.928;8.150;2023-07-29T04:11:21;983.66;;;16.1;100
75089;BME280;63673;49.928;8.150;2023-07-29T04:12:23;983.66;;;16.1;100
75089;BME280;63673;49.928;8.150;2023-07-29T04:13:25;983.66;;;16.1;100
75089;BME280;63673;49.928;8.150;2023-07-29T04:14:26;983.65;;;16.09;100
75089;BME280;63673;49.928;8.150;2023-07-29T04:15:28;983.65;;;16.09;100
75089;BME280;63673;49.928;8.150;2023-07-29T04:16:30;983.63;;;16.09;100
75089;BME280;63673;49.928;8.150;2023-07-29T04:17:32;983.62;;;16.08;100
75089;BME280;63673;49.928;8.150;2023-07-29T04:18:33;983.63;;;16.08;100
75089;BME280;63673;49.928;8.150;2023-07-29T04:19:35;983.63;;;16.07;100
75089;BME280;63673;49.928;8.150;2023-07-29T04:20:37;983.63;;;16.06;100
75089;BME280;63673;49.928;8.150;2023-07-29T04:21:38;983.65;;;16.06;100
75089;BME280;63673;49.928;8.150;2023-07-29T04:22:40;983.66;;;16.05;100
75089;BME280;63673;49.928;8.150;2023-07-29T04:23:42;983.69;;;16.05;100
75089;BME280;63673;49.928;8.150;2023-07-29T04:24:44;983.71;;;16.04;100
75089;BME280;63673;49.928;8.150;2023-07-29T04:25:45;983.7;;;16.04;100
75089;BME280;63673;49.928;8.150;2023-07-29T04:26:47;983.79;;;16.03;100
75089;BME280;63673;49.928;8.150;2023-07-29T04:27:49;983.74;;;16.03;100
75089;BME280;63673;49.928;8.150;2023-07-29T04:28:51;983.78;;;16.02;100
75089;BME280;63673;49.928;8.150;2023-07-29T04:29:53;983.79;;;16.01;100
75089;BME280;63673;49.928;8.150;2023-07-29T04:30:54;983.85;;;16.01;100
75089;BME280;63673;49.928;8.150;2023-07-29T04:31:56;983.84;;;16.01;100
75089;BME280;63673;49.928;8.150;2023-07-29T04:32:58;983.84;;;15.99;100
75089;BME280;63673;49.928;8.150;2023-07-29T04:33:59;983.79;;;15.98;100
75089;BME280;63673;49.928;8.150;2023-07-29T04:35:01;983.82;;;15.98;100
75089;BME280;63673;49.928;8.150;2023-07-29T04:36:03;983.8;;;15.97;100
75089;BME280;63673;49.928;8.150;2023-07-29T04:37:05;983.8;;;15.97;100
75089;BME280;63673;49.928;8.150;2023-07-29T04:38:06;983.72;;;15.97;100
75089;BME280;63673;49.928;8.150;2023-07-29T04:39:08;983.75;;;15.96;100
75089;BME280;63673;49.928;8.150;2023-07-29T04:40:10;983.78;;;15.97;100
75089;BME280;63673;49.928;8.150;2023-07-29T04:41:11;983.78;;;15.97;100
75089;BME280;63673;49.928;8.150;2023-07-29T04:42:13;983.76;;;15.97;100
75089;BME280;63673;49.928;8.150;2023-07-29T04:43:15;983.73;;;15.99;100
75089;BME280;63673;49.928;8.150;2023-07-29T04:44:17;983.74;;;15.99;100
75089;BME280;63673;49.928;8.150;2023-07-29T04:45:18;983.72;;;16.01;100
75089;BME280;63673;49.928;8.150;2023-07-29T04:46:20;983.76;;;16.02;100
75089;BME280;63673;49.928;8.150;2023-07-29T04:47:22;983.76;;;16.03;100
75089;BME280;63673;49.928;8.150;2023-07-29T04:48:24;983.77;;;16.05;100
75089;BME280;63673;49.928;8.150;2023-07-29T04:49:25;983.77;;;16.05;100
75089;BME280;63673;49.928;8.150;2023-07-29T04:50:30;983.72;;;16.08;100
75089;BME280;63673;49.928;8.150;2023-07-29T04:51:34;983.73;;;16.12;100
75089;BME280;63673;49.928;8.150;2023-07-29T04:52:36;983.68;;;16.15;100
75089;BME280;63673;49.928;8.150;2023-07-29T04:53:37;983.63;;;16.16;100
75089;BME280;63673;49.928;8.150;2023-07-29T04:54:39;983.67;;;16.18;100
75089;BME280;63673;49.928;8.150;2023-07-29T04:55:41;983.66;;;16.2;100
75089;BME280;63673;49.928;8.150;2023-07-29T04:56:43;983.58;;;16.23;100
75089;BME280;63673;49.928;8.150;2023-07-29T04:57:44;983.65;;;16.25;100
75089;BME280;63673;49.928;8.150;2023-07-29T04:58:46;983.62;;;16.28;100
75089;BME280;63673;49.928;8.150;2023-07-29T04:59:48;983.58;;;16.31;100
75089;BME280;63673;49.928;8.150;2023-07-29T05:00:49;983.61;;;16.33;100
75089;BME280;63673;49.928;8.150;2023-07-29T05:01:51;983.56;;;16.37;100
75089;BME280;63673;49.928;8.150;2023-07-29T05:02:53;983.54;;;16.41;100
75089;BME280;63673;49.928;8.150;2023-07-29T05:03:55;983.6;;;16.43;100
75089;BME280;63673;49.928;8.150;2023-07-29T05:04:56;983.65;;;16.46;100
75089;BME280;63673;49.928;8.150;2023-07-29T05:05:58;983.63;;;16.5;100
75089;BME280;63673;49.928;8.150;2023-07-29T05:07:00;983.6;;;16.53;100
75089;BME280;63673;49.928;8.150;2023-07-29T05:08:02;983.58;;;16.56;100
75089;BME280;63673;49.928;8.150;2023-07-29T05:09:12;983.65;;;16.59;100
75089;BME280;63673;49.928;8.150;2023-07-29T05:10:06;983.67;;;16.63;100
75089;BME280;63673;49.928;8.150;2023-07-29T05:11:07;983.69;;;16.67;100
75089;BME280;63673;49.928;8.150;2023-07-29T05:12:09;983.72;;;16.7;100
75089;BME280;63673;49.928;8.150;2023-07-29T05:13:10;983.71;;;16.73;100
75089;BME280;63673;49.928;8.150;2023-07-29T05:14:12;983.73;;;16.77;100
75089;BME280;63673;49.928;8.150;2023-07-29T05:15:14;983.73;;;16.8;100
75089;BME280;63673;49.928;8.150;2023-07-29T05:16:15;983.67;;;16.84;100
75089;BME280;63673;49.928;8.150;2023-07-29T05:17:17;983.7;;;16.87;100
75089;BME280;63673;49.928;8.150;2023-07-29T05:18:19;983.59;;;16.92;100
75089;BME280;63673;49.928;8.150;2023-07-29T05:19:21;983.58;;;16.95;100
75089;BME280;63673;49.928;8.150;2023-07-29T05:20:22;983.58;;;17;100
75089;BME280;63673;49.928;8.150;2023-07-29T05:21:24;983.56;;;17.04;100
75089;BME280;63673;49.928;8.150;2023-07-29T05:22:26;983.63;;;17.07;100
75089;BME280;63673;49.928;8.150;2023-07-29T05:23:28;983.67;;;17.11;100
75089;BME280;63673;49.928;8.150;2023-07-29T05:24:40;983.66;;;17.15;100
75089;BME280;63673;49.928;8.150;2023-07-29T05:25:41;983.67;;;17.19;100
75089;BME280;63673;49.928;8.150;2023-07-29T05:26:42;983.63;;;17.21;100
75089;BME280;63673;49.928;8.150;2023-07-29T05:28:27;983.65;;;17.21;100
75089;BME280;63673;49.928;8.150;2023-07-29T05:29:29;983.7;;;17.26;100
75089;BME280;63673;49.928;8.150;2023-07-29T05:30:29;983.67;;;17.29;100
75089;BME280;63673;49.928;8.150;2023-07-29T05:31:08;983.76;;;17.32;100
75089;BME280;63673;49.928;8.150;2023-07-29T05:32:58;983.74;;;17.32;100
75089;BME280;63673;49.928;8.150;2023-07-29T05:34:00;983.71;;;17.36;100
75089;BME280;63673;49.928;8.150;2023-07-29T05:35:31;983.75;;;17.37;100
75089;BME280;63673;49.928;8.150;2023-07-29T05:36:56;983.78;;;17.39;100
75089;BME280;63673;49.928;8.150;2023-07-29T05:39:29;983.82;;;17.4;100
75089;BME280;63673;49.928;8.150;2023-07-29T05:40:29;983.8;;;17.4;100
75089;BME280;63673;49.928;8.150;2023-07-29T05:41:38;983.83;;;17.4;100
75089;BME280;63673;49.928;8.150;2023-07-29T05:42:55;983.86;;;17.4;100
75089;BME280;63673;49.928;8.150;2023-07-29T05:43:58;983.89;;;17.4;100
75089;BME280;63673;49.928;8.150;2023-07-29T05:45:03;983.93;;;17.39;100
75089;BME280;63673;49.928;8.150;2023-07-29T05:46:21;983.92;;;17.39;100
75089;BME280;63673;49.928;8.150;2023-07-29T05:47:23;984.02;;;17.37;100
75089;BME280;63673;49.928;8.150;2023-07-29T05:48:25;983.97;;;17.36;100
75089;BME280;63673;49.928;8.150;2023-07-29T05:49:27;983.85;;;17.36;100
75089;BME280;63673;49.928;8.150;2023-07-29T05:50:29;983.85;;;17.35;100
75089;BME280;63673;49.928;8.150;2023-07-29T05:51:30;983.9;;;17.35;100
75089;BME280;63673;49.928;8.150;2023-07-29T05:52:32;983.96;;;17.35;100
75089;BME280;63673;49.928;8.150;2023-07-29T05:53:34;983.97;;;17.35;100
75089;BME280;63673;49.928;8.150;2023-07-29T05:54:35;983.96;;;17.35;100
75089;BME280;63673;49.928;8.150;2023-07-29T05:55:37;983.94;;;17.35;100
75089;BME280;63673;49.928;8.150;2023-07-29T05:56:39;983.95;;;17.36;100
75089;BME280;63673;49.928;8.150;2023-07-29T05:57:41;983.98;;;17.36;100
75089;BME280;63673;49.928;8.150;2023-07-29T05:58:42;984;;;17.36;100
75089;BME280;63673;49.928;8.150;2023-07-29T05:59:44;983.99;;;17.36;100
75089;BME280;63673;49.928;8.150;2023-07-29T06:00:46;983.96;;;17.38;100
75089;BME280;63673;49.928;8.150;2023-07-29T06:01:47;984;;;17.38;100
75089;BME280;63673;49.928;8.150;2023-07-29T06:02:49;984.05;;;17.39;100
75089;BME280;63673;49.928;8.150;2023-07-29T06:03:51;984.03;;;17.4;100
75089;BME280;63673;49.928;8.150;2023-07-29T06:04:53;984.08;;;17.41;100
75089;BME280;63673;49.928;8.150;2023-07-29T06:05:54;984.1;;;17.42;100
75089;BME280;63673;49.928;8.150;2023-07-29T06:06:56;984.14;;;17.43;100
75089;BME280;63673;49.928;8.150;2023-07-29T06:07:58;984.12;;;17.44;100